sensor_id;sensor_type;location;lat;lon;timestamp;pressure;altitude;pressure_sealevel;temperature;humidity
33496;BME280;19836;55.812;37.560;2022-09-30T00:00:04;99385.91;;;12.51;79.16
33496;BME280;19836;55.812;37.560;2022-09-30T00:02:34;99377.19;;;12.46;78.87
33496;BME280;19836;55.812;37.560;2022-09-30T00:05:00;99389.94;;;12.41;79.23
33496;BME280;19836;55.812;37.560;2022-09-30T00:07:26;99384.84;;;12.35;79.34
33496;BME280;19836;55.812;37.560;2022-09-30T00:09:52;99383.34;;;12.28;79.66
33496;BME280;19836;55.812;37.560;2022-09-30T00:12:18;99389.88;;;12.23;79.65
33496;BME280;19836;55.812;37.560;2022-09-30T00:14:44;99387.50;;;12.15;79.66
33496;BME280;19836;55.812;37.560;2022-09-30T00:17:10;99388.69;;;12.08;79.91
33496;BME280;19836;55.812;37.560;2022-09-30T00:19:36;99384.38;;;12.04;80.00
33496;BME280;19836;55.812;37.560;2022-09-30T00:22:02;99392.31;;;12.07;80.33
33496;BME280;19836;55.812;37.560;2022-09-30T00:24:32;99397.69;;;12.07;80.22
33496;BME280;19836;55.812;37.560;2022-09-30T00:26:58;99412.84;;;12.08;80.33
33496;BME280;19836;55.812;37.560;2022-09-30T00:29:25;99423.47;;;12.11;79.97
33496;BME280;19836;55.812;37.560;2022-09-30T00:31:53;99423.47;;;12.11;79.61
33496;BME280;19836;55.812;37.560;2022-09-30T00:34:19;99412.06;;;12.06;80.22
33496;BME280;19836;55.812;37.560;2022-09-30T00:36:46;99420.38;;;12.00;80.28
33496;BME280;19836;55.812;37.560;2022-09-30T00:39:18;99421.22;;;12.01;80.47
33496;BME280;19836;55.812;37.560;2022-09-30T00:41:47;99423.97;;;11.99;80.27
33496;BME280;19836;55.812;37.560;2022-09-30T00:51:07;99431.31;;;11.94;80.17
33496;BME280;19836;55.812;37.560;2022-09-30T01:02:14;99428.84;;;11.90;79.69
33496;BME280;19836;55.812;37.560;2022-09-30T01:04:44;99429.03;;;11.85;79.96
33496;BME280;19836;55.812;37.560;2022-09-30T01:07:12;99439.81;;;11.84;80.43
33496;BME280;19836;55.812;37.560;2022-09-30T01:10:18;99425.47;;;11.85;80.49
33496;BME280;19836;55.812;37.560;2022-09-30T01:12:44;99427.34;;;11.83;80.56
33496;BME280;19836;55.812;37.560;2022-09-30T01:15:10;99421.97;;;11.83;80.62
33496;BME280;19836;55.812;37.560;2022-09-30T01:17:47;99420.22;;;11.82;80.53
33496;BME280;19836;55.812;37.560;2022-09-30T01:36:14;99434.16;;;11.91;80.37
33496;BME280;19836;55.812;37.560;2022-09-30T03:47:40;99443.38;;;11.63;80.59
33496;BME280;19836;55.812;37.560;2022-09-30T03:50:09;99438.06;;;11.61;81.00
33496;BME280;19836;55.812;37.560;2022-09-30T03:52:36;99440.81;;;11.58;81.21
33496;BME280;19836;55.812;37.560;2022-09-30T03:55:05;99442.53;;;11.61;81.26
33496;BME280;19836;55.812;37.560;2022-09-30T03:57:32;99438.84;;;11.63;80.87
33496;BME280;19836;55.812;37.560;2022-09-30T03:59:59;99430.81;;;11.63;81.09
33496;BME280;19836;55.812;37.560;2022-09-30T04:02:26;99428.06;;;11.65;80.89
33496;BME280;19836;55.812;37.560;2022-09-30T04:04:52;99439.44;;;11.71;80.62
33496;BME280;19836;55.812;37.560;2022-09-30T04:07:18;99441.06;;;11.75;80.83
33496;BME280;19836;55.812;37.560;2022-09-30T04:09:44;99444.44;;;11.80;80.53
33496;BME280;19836;55.812;37.560;2022-09-30T04:12:13;99445.06;;;11.87;80.52
33496;BME280;19836;55.812;37.560;2022-09-30T04:14:39;99454.59;;;11.95;80.40
33496;BME280;19836;55.812;37.560;2022-09-30T04:17:05;99445.44;;;11.99;80.32
33496;BME280;19836;55.812;37.560;2022-09-30T04:19:31;99444.38;;;12.03;80.03
33496;BME280;19836;55.812;37.560;2022-09-30T04:22:02;99442.53;;;12.05;80.16
33496;BME280;19836;55.812;37.560;2022-09-30T04:24:28;99458.44;;;12.10;79.65
33496;BME280;19836;55.812;37.560;2022-09-30T04:26:54;99460.06;;;12.14;79.28
33496;BME280;19836;55.812;37.560;2022-09-30T04:29:23;99464.31;;;12.19;79.32
33496;BME280;19836;55.812;37.560;2022-09-30T04:31:51;99460.69;;;12.20;79.15
33496;BME280;19836;55.812;37.560;2022-09-30T04:34:16;99458.81;;;12.22;79.09
33496;BME280;19836;55.812;37.560;2022-09-30T04:36:43;99455.94;;;12.27;78.77
33496;BME280;19836;55.812;37.560;2022-09-30T04:39:12;99453.94;;;12.32;78.78
33496;BME280;19836;55.812;37.560;2022-09-30T04:41:39;99456.44;;;12.36;78.43
33496;BME280;19836;55.812;37.560;2022-09-30T04:44:05;99450.81;;;12.42;78.20
33496;BME280;19836;55.812;37.560;2022-09-30T04:46:33;99451.47;;;12.47;77.78
33496;BME280;19836;55.812;37.560;2022-09-30T04:49:04;99452.44;;;12.46;77.48
33496;BME280;19836;55.812;37.560;2022-09-30T04:51:33;99466.72;;;12.47;77.38
33496;BME280;19836;55.812;37.560;2022-09-30T04:54:03;99458.41;;;12.53;77.01
33496;BME280;19836;55.812;37.560;2022-09-30T04:56:32;99461.78;;;12.58;76.76
33496;BME280;19836;55.812;37.560;2022-09-30T04:58:58;99460.78;;;12.60;77.09
33496;BME280;19836;55.812;37.560;2022-09-30T05:01:24;99459.69;;;12.64;76.77
33496;BME280;19836;55.812;37.560;2022-09-30T05:04:28;99461.81;;;12.78;76.83
33496;BME280;19836;55.812;37.560;2022-09-30T05:06:57;99461.72;;;12.79;76.34
33496;BME280;19836;55.812;37.560;2022-09-30T05:09:37;99464.22;;;12.84;76.00
33496;BME280;19836;55.812;37.560;2022-09-30T05:12:40;99447.06;;;12.86;75.53
33496;BME280;19836;55.812;37.560;2022-09-30T05:15:21;99455.81;;;12.91;75.32
33496;BME280;19836;55.812;37.560;2022-09-30T05:18:01;99441.19;;;12.98;75.12
33496;BME280;19836;55.812;37.560;2022-09-30T05:20:27;99443.66;;;13.03;74.98
33496;BME280;19836;55.812;37.560;2022-09-30T05:22:54;99456.03;;;13.07;74.99
33496;BME280;19836;55.812;37.560;2022-09-30T05:25:23;99453.28;;;13.08;74.69
33496;BME280;19836;55.812;37.560;2022-09-30T05:28:07;99445.09;;;13.11;74.44
33496;BME280;19836;55.812;37.560;2022-09-30T05:30:34;99456.75;;;13.10;73.92
33496;BME280;19836;55.812;37.560;2022-09-30T05:33:03;99461.88;;;13.16;74.15
33496;BME280;19836;55.812;37.560;2022-09-30T05:35:59;99458.84;;;13.24;73.51
33496;BME280;19836;55.812;37.560;2022-09-30T05:38:32;99463.22;;;13.26;73.20
33496;BME280;19836;55.812;37.560;2022-09-30T05:41:26;99470.19;;;13.30;73.18
33496;BME280;19836;55.812;37.560;2022-09-30T05:43:52;99480.03;;;13.31;73.07
33496;BME280;19836;55.812;37.560;2022-09-30T05:46:20;99477.13;;;13.36;72.58
33496;BME280;19836;55.812;37.560;2022-09-30T05:48:46;99472.53;;;13.38;72.71
33496;BME280;19836;55.812;37.560;2022-09-30T05:51:12;99478.66;;;13.41;72.43
33496;BME280;19836;55.812;37.560;2022-09-30T05:53:38;99471.38;;;13.43;72.24
33496;BME280;19836;55.812;37.560;2022-09-30T05:56:06;99473.00;;;13.47;72.46
33496;BME280;19836;55.812;37.560;2022-09-30T05:58:32;99464.69;;;13.52;72.11
33496;BME280;19836;55.812;37.560;2022-09-30T06:01:03;99466.38;;;13.54;71.43
33496;BME280;19836;55.812;37.560;2022-09-30T06:03:31;99459.03;;;13.58;71.86
33496;BME280;19836;55.812;37.560;2022-09-30T06:05:57;99462.47;;;13.61;71.46
33496;BME280;19836;55.812;37.560;2022-09-30T06:08:23;99460.44;;;13.66;71.31
33496;BME280;19836;55.812;37.560;2022-09-30T06:10:49;99459.41;;;13.69;71.17
33496;BME280;19836;55.812;37.560;2022-09-30T06:13:15;99462.19;;;13.67;71.03
33496;BME280;19836;55.812;37.560;2022-09-30T06:16:00;99462.13;;;13.69;70.59
33496;BME280;19836;55.812;37.560;2022-09-30T06:18:27;99456.72;;;13.69;70.75
33496;BME280;19836;55.812;37.560;2022-09-30T06:20:58;99454.75;;;13.72;70.58
33496;BME280;19836;55.812;37.560;2022-09-30T06:23:24;99464.28;;;13.79;70.34
33496;BME280;19836;55.812;37.560;2022-09-30T06:25:52;99467.63;;;13.84;70.51
33496;BME280;19836;55.812;37.560;2022-09-30T06:28:18;99469.09;;;13.91;70.13
33496;BME280;19836;55.812;37.560;2022-09-30T06:30:45;99465.44;;;13.92;69.59
33496;BME280;19836;55.812;37.560;2022-09-30T06:33:12;99462.69;;;13.94;69.26
33496;BME280;19836;55.812;37.560;2022-09-30T06:35:38;99466.09;;;13.97;69.10
33496;BME280;19836;55.812;37.560;2022-09-30T06:38:10;99466.59;;;14.05;68.94
33496;BME280;19836;55.812;37.560;2022-09-30T06:40:37;99472.63;;;14.10;68.94
33496;BME280;19836;55.812;37.560;2022-09-30T06:43:03;99471.53;;;14.14;68.86
33496;BME280;19836;55.812;37.560;2022-09-30T06:45:29;99462.50;;;14.15;68.35
33496;BME280;19836;55.812;37.560;2022-09-30T06:48:00;99471.78;;;14.10;68.72
33496;BME280;19836;55.812;37.560;2022-09-30T06:50:26;99475.56;;;14.06;68.93
33496;BME280;19836;55.812;37.560;2022-09-30T06:52:56;99475.63;;;14.04;68.52
33496;BME280;19836;55.812;37.560;2022-09-30T06:55:24;99477.38;;;14.05;68.52
33496;BME280;19836;55.812;37.560;2022-09-30T06:57:52;99481.72;;;14.08;68.81
33496;BME280;19836;55.812;37.560;2022-09-30T07:00:18;99485.19;;;14.11;68.43
33496;BME280;19836;55.812;37.560;2022-09-30T07:02:44;99488.53;;;14.16;68.28
33496;BME280;19836;55.812;37.560;2022-09-30T07:05:10;99470.34;;;14.21;68.43
33496;BME280;19836;55.812;37.560;2022-09-30T07:07:36;99477.94;;;14.30;68.27
33496;BME280;19836;55.812;37.560;2022-09-30T07:10:03;99482.50;;;14.47;68.34
33496;BME280;19836;55.812;37.560;2022-09-30T07:12:29;99474.47;;;14.64;67.71
33496;BME280;19836;55.812;37.560;2022-09-30T07:14:55;99481.69;;;14.80;67.52
33496;BME280;19836;55.812;37.560;2022-09-30T07:17:21;99480.75;;;14.98;66.49
33496;BME280;19836;55.812;37.560;2022-09-30T07:19:47;99476.75;;;15.22;66.04
33496;BME280;19836;55.812;37.560;2022-09-30T07:22:13;99481.91;;;15.44;65.70
33496;BME280;19836;55.812;37.560;2022-09-30T07:25:01;99476.13;;;15.67;64.82
33496;BME280;19836;55.812;37.560;2022-09-30T07:27:31;99478.00;;;15.82;64.54
33496;BME280;19836;55.812;37.560;2022-09-30T07:29:57;99482.00;;;15.90;64.05
33496;BME280;19836;55.812;37.560;2022-09-30T07:32:27;99472.41;;;16.00;63.96
33496;BME280;19836;55.812;37.560;2022-09-30T07:34:53;99475.13;;;16.00;63.49
33496;BME280;19836;55.812;37.560;2022-09-30T07:37:19;99472.78;;;15.94;63.70
33496;BME280;19836;55.812;37.560;2022-09-30T07:39:47;99473.66;;;15.95;63.64
33496;BME280;19836;55.812;37.560;2022-09-30T07:42:16;99467.97;;;15.99;63.53
33496;BME280;19836;55.812;37.560;2022-09-30T07:44:46;99469.91;;;16.13;63.15
33496;BME280;19836;55.812;37.560;2022-09-30T07:47:14;99476.16;;;16.29;62.79
33496;BME280;19836;55.812;37.560;2022-09-30T07:49:41;99481.63;;;16.44;62.45
33496;BME280;19836;55.812;37.560;2022-09-30T07:52:09;99485.69;;;16.51;62.05
33496;BME280;19836;55.812;37.560;2022-09-30T07:54:37;99486.84;;;16.47;61.73
33496;BME280;19836;55.812;37.560;2022-09-30T07:57:04;99480.84;;;16.42;61.86
33496;BME280;19836;55.812;37.560;2022-09-30T07:59:32;99477.66;;;16.34;61.72
33496;BME280;19836;55.812;37.560;2022-09-30T08:01:59;99472.63;;;16.28;61.90
33496;BME280;19836;55.812;37.560;2022-09-30T08:04:26;99475.75;;;16.21;62.27
33496;BME280;19836;55.812;37.560;2022-09-30T08:06:56;99469.38;;;16.06;62.03
33496;BME280;19836;55.812;37.560;2022-09-30T08:09:25;99468.06;;;15.98;62.61
33496;BME280;19836;55.812;37.560;2022-09-30T08:11:53;99466.25;;;15.98;62.92
33496;BME280;19836;55.812;37.560;2022-09-30T08:14:24;99472.25;;;16.03;62.92
33496;BME280;19836;55.812;37.560;2022-09-30T08:16:50;99472.06;;;16.06;63.20
33496;BME280;19836;55.812;37.560;2022-09-30T08:19:19;99471.63;;;16.14;63.02
33496;BME280;19836;55.812;37.560;2022-09-30T08:21:46;99462.47;;;16.16;63.54
33496;BME280;19836;55.812;37.560;2022-09-30T08:24:12;99468.59;;;16.20;63.33
33496;BME280;19836;55.812;37.560;2022-09-30T08:26:41;99461.53;;;16.17;63.59
33496;BME280;19836;55.812;37.560;2022-09-30T08:29:08;99458.31;;;16.11;63.95
33496;BME280;19836;55.812;37.560;2022-09-30T08:31:36;99457.78;;;16.04;64.29
33496;BME280;19836;55.812;37.560;2022-09-30T08:34:02;99464.06;;;16.05;64.52
33496;BME280;19836;55.812;37.560;2022-09-30T08:36:28;99455.53;;;16.12;64.40
33496;BME280;19836;55.812;37.560;2022-09-30T08:38:55;99450.53;;;16.20;64.42
33496;BME280;19836;55.812;37.560;2022-09-30T08:41:39;99452.91;;;16.42;64.47
33496;BME280;19836;55.812;37.560;2022-09-30T08:44:45;99461.16;;;16.99;63.90
33496;BME280;19836;55.812;37.560;2022-09-30T08:47:31;99458.31;;;17.30;62.73
33496;BME280;19836;55.812;37.560;2022-09-30T08:50:13;99452.50;;;17.36;62.09
33496;BME280;19836;55.812;37.560;2022-09-30T08:52:44;99456.97;;;17.37;62.00
33496;BME280;19836;55.812;37.560;2022-09-30T08:55:20;99447.63;;;17.57;61.66
33496;BME280;19836;55.812;37.560;2022-09-30T08:57:47;99454.31;;;17.79;61.23
33496;BME280;19836;55.812;37.560;2022-09-30T09:00:17;99448.16;;;18.04;60.85
33496;BME280;19836;55.812;37.560;2022-09-30T09:03:03;99447.81;;;18.22;60.55
33496;BME280;19836;55.812;37.560;2022-09-30T09:09:04;99443.53;;;18.46;59.75
33496;BME280;19836;55.812;37.560;2022-09-30T09:12:00;99446.72;;;18.53;59.63
33496;BME280;19836;55.812;37.560;2022-09-30T09:15:17;99440.53;;;18.51;59.23
33496;BME280;19836;55.812;37.560;2022-09-30T09:20:24;99437.59;;;18.54;59.79
33496;BME280;19836;55.812;37.560;2022-09-30T09:22:55;99446.09;;;18.62;60.00
33496;BME280;19836;55.812;37.560;2022-09-30T09:25:25;99451.47;;;18.49;59.74
33496;BME280;19836;55.812;37.560;2022-09-30T09:27:59;99451.88;;;18.43;59.79
33496;BME280;19836;55.812;37.560;2022-09-30T09:30:33;99454.38;;;18.46;59.69
33496;BME280;19836;55.812;37.560;2022-09-30T09:33:14;99464.00;;;18.38;59.88
33496;BME280;19836;55.812;37.560;2022-09-30T09:43:49;99448.44;;;18.13;61.00
33496;BME280;19836;55.812;37.560;2022-09-30T09:46:29;99462.94;;;18.40;61.21
33496;BME280;19836;55.812;37.560;2022-09-30T09:54:31;99439.47;;;19.17;58.94
33496;BME280;19836;55.812;37.560;2022-09-30T09:57:28;99444.69;;;18.69;59.49
33496;BME280;19836;55.812;37.560;2022-09-30T10:00:10;99448.81;;;18.35;60.13
33496;BME280;19836;55.812;37.560;2022-09-30T10:03:20;99453.66;;;18.16;60.97
33496;BME280;19836;55.812;37.560;2022-09-30T10:06:14;99445.84;;;18.12;61.50
33496;BME280;19836;55.812;37.560;2022-09-30T10:08:55;99441.00;;;18.03;61.85
33496;BME280;19836;55.812;37.560;2022-09-30T10:11:24;99443.94;;;18.26;61.79
33496;BME280;19836;55.812;37.560;2022-09-30T10:13:56;99441.88;;;18.44;61.56
33496;BME280;19836;55.812;37.560;2022-09-30T10:18:52;99438.94;;;18.34;61.49
33496;BME280;19836;55.812;37.560;2022-09-30T10:21:20;99432.34;;;18.24;62.01
33496;BME280;19836;55.812;37.560;2022-09-30T10:23:47;99435.13;;;18.37;62.31
33496;BME280;19836;55.812;37.560;2022-09-30T10:29:00;99434.72;;;19.08;61.36
33496;BME280;19836;55.812;37.560;2022-09-30T10:31:30;99419.56;;;19.43;60.75
33496;BME280;19836;55.812;37.560;2022-09-30T10:34:01;99425.25;;;19.89;59.96
33496;BME280;19836;55.812;37.560;2022-09-30T10:36:40;99422.19;;;20.65;58.73
33496;BME280;19836;55.812;37.560;2022-09-30T10:39:30;99423.16;;;21.11;57.23
33496;BME280;19836;55.812;37.560;2022-09-30T10:44:29;99428.38;;;20.67;56.48
33496;BME280;19836;55.812;37.560;2022-09-30T10:46:59;99425.44;;;20.70;56.68
33496;BME280;19836;55.812;37.560;2022-09-30T10:49:30;99428.16;;;20.47;57.08
33496;BME280;19836;55.812;37.560;2022-09-30T10:52:00;99422.66;;;20.59;57.03
33496;BME280;19836;55.812;37.560;2022-09-30T10:54:51;99421.16;;;21.13;56.50
33496;BME280;19836;55.812;37.560;2022-09-30T10:59:59;99421.53;;;22.74;53.70
33496;BME280;19836;55.812;37.560;2022-09-30T11:11:16;99426.72;;;22.34;52.22
33496;BME280;19836;55.812;37.560;2022-09-30T11:13:56;99422.78;;;22.05;52.67
33496;BME280;19836;55.812;37.560;2022-09-30T11:16:33;99426.28;;;21.74;53.39
33496;BME280;19836;55.812;37.560;2022-09-30T11:19:08;99419.44;;;21.23;53.97
33496;BME280;19836;55.812;37.560;2022-09-30T11:21:46;99417.56;;;21.02;54.68
33496;BME280;19836;55.812;37.560;2022-09-30T11:32:57;99422.28;;;20.17;56.85
33496;BME280;19836;55.812;37.560;2022-09-30T11:35:43;99413.72;;;20.57;57.00
33496;BME280;19836;55.812;37.560;2022-09-30T11:53:06;99433.25;;;21.55;54.37
33496;BME280;19836;55.812;37.560;2022-09-30T11:55:48;99439.31;;;21.36;54.75
33496;BME280;19836;55.812;37.560;2022-09-30T11:58:20;99442.19;;;21.00;54.83
33496;BME280;19836;55.812;37.560;2022-09-30T12:00:56;99449.75;;;20.61;55.78
33496;BME280;19836;55.812;37.560;2022-09-30T12:03:35;99453.81;;;20.32;56.75
33496;BME280;19836;55.812;37.560;2022-09-30T12:06:20;99452.31;;;20.03;57.42
33496;BME280;19836;55.812;37.560;2022-09-30T12:08:52;99457.06;;;19.76;57.93
33496;BME280;19836;55.812;37.560;2022-09-30T12:11:39;99452.56;;;19.62;58.68
33496;BME280;19836;55.812;37.560;2022-09-30T12:14:17;99450.63;;;19.52;59.01
33496;BME280;19836;55.812;37.560;2022-09-30T12:16:47;99450.41;;;19.42;59.36
33496;BME280;19836;55.812;37.560;2022-09-30T12:21:57;99443.47;;;19.38;60.35
33496;BME280;19836;55.812;37.560;2022-09-30T12:24:35;99446.94;;;19.40;60.34
33496;BME280;19836;55.812;37.560;2022-09-30T12:27:04;99447.38;;;19.34;60.52
33496;BME280;19836;55.812;37.560;2022-09-30T12:29:37;99455.41;;;19.23;60.86
33496;BME280;19836;55.812;37.560;2022-09-30T12:32:40;99458.81;;;19.13;60.92
33496;BME280;19836;55.812;37.560;2022-09-30T12:36:09;99449.03;;;19.10;61.50
33496;BME280;19836;55.812;37.560;2022-09-30T12:39:07;99449.09;;;19.23;61.34
33496;BME280;19836;55.812;37.560;2022-09-30T12:42:04;99448.78;;;19.52;61.15
33496;BME280;19836;55.812;37.560;2022-09-30T12:50:18;99449.75;;;19.76;60.36
33496;BME280;19836;55.812;37.560;2022-09-30T12:52:44;99444.94;;;19.80;60.21
33496;BME280;19836;55.812;37.560;2022-09-30T12:55:24;99453.25;;;19.78;60.57
33496;BME280;19836;55.812;37.560;2022-09-30T12:57:54;99438.66;;;19.79;60.79
33496;BME280;19836;55.812;37.560;2022-09-30T13:00:23;99438.56;;;19.81;60.50
33496;BME280;19836;55.812;37.560;2022-09-30T13:02:56;99443.88;;;19.70;60.61
33496;BME280;19836;55.812;37.560;2022-09-30T13:10:32;99448.03;;;19.50;61.44
33496;BME280;19836;55.812;37.560;2022-09-30T13:13:24;99451.72;;;19.37;61.81
33496;BME280;19836;55.812;37.560;2022-09-30T13:15:54;99448.22;;;19.22;62.12
33496;BME280;19836;55.812;37.560;2022-09-30T13:29:25;99452.22;;;18.78;63.77
33496;BME280;19836;55.812;37.560;2022-09-30T13:34:24;99466.31;;;18.70;64.63
33496;BME280;19836;55.812;37.560;2022-09-30T13:42:22;99473.53;;;18.57;65.12
33496;BME280;19836;55.812;37.560;2022-09-30T13:45:28;99475.66;;;18.52;65.30
33496;BME280;19836;55.812;37.560;2022-09-30T13:47:56;99484.03;;;18.49;65.45
33496;BME280;19836;55.812;37.560;2022-09-30T13:53:43;99482.41;;;18.47;65.84
33496;BME280;19836;55.812;37.560;2022-09-30T13:56:30;99501.41;;;18.47;66.25
33496;BME280;19836;55.812;37.560;2022-09-30T13:59:35;99484.44;;;18.43;66.26
33496;BME280;19836;55.812;37.560;2022-09-30T14:04:50;99489.19;;;18.40;66.46
33496;BME280;19836;55.812;37.560;2022-09-30T14:08:17;99498.53;;;18.36;66.35
33496;BME280;19836;55.812;37.560;2022-09-30T14:14:00;99496.88;;;18.33;66.47
33496;BME280;19836;55.812;37.560;2022-09-30T14:22:14;99499.47;;;18.21;67.10
33496;BME280;19836;55.812;37.560;2022-09-30T14:24:41;99505.09;;;18.18;67.29
33496;BME280;19836;55.812;37.560;2022-09-30T14:30:13;99505.00;;;17.91;68.30
33496;BME280;19836;55.812;37.560;2022-09-30T14:32:47;99502.69;;;17.71;68.91
33496;BME280;19836;55.812;37.560;2022-09-30T14:35:35;99502.13;;;17.52;70.20
33496;BME280;19836;55.812;37.560;2022-09-30T14:38:18;99503.81;;;17.39;70.92
33496;BME280;19836;55.812;37.560;2022-09-30T14:40:50;99505.91;;;17.34;71.55
33496;BME280;19836;55.812;37.560;2022-09-30T14:43:21;99515.19;;;17.30;72.48
33496;BME280;19836;55.812;37.560;2022-09-30T14:45:53;99507.94;;;17.31;72.49
33496;BME280;19836;55.812;37.560;2022-09-30T14:48:24;99521.41;;;17.32;72.79
33496;BME280;19836;55.812;37.560;2022-09-30T14:53:34;99511.31;;;17.34;73.25
33496;BME280;19836;55.812;37.560;2022-09-30T14:56:01;99509.16;;;17.41;73.27
33496;BME280;19836;55.812;37.560;2022-09-30T14:58:37;99524.16;;;17.46;72.84
33496;BME280;19836;55.812;37.560;2022-09-30T15:01:13;99520.19;;;17.52;72.47
33496;BME280;19836;55.812;37.560;2022-09-30T15:04:32;99526.38;;;17.54;72.63
33496;BME280;19836;55.812;37.560;2022-09-30T15:06:34;99524.00;;;17.63;72.26
33496;BME280;19836;55.812;37.560;2022-09-30T15:09:06;99524.16;;;17.60;71.89
33496;BME280;19836;55.812;37.560;2022-09-30T15:11:34;99524.56;;;17.54;71.68
33496;BME280;19836;55.812;37.560;2022-09-30T15:14:10;99531.91;;;17.52;71.92
33496;BME280;19836;55.812;37.560;2022-09-30T15:17:15;99537.13;;;17.55;72.04
33496;BME280;19836;55.812;37.560;2022-09-30T15:19:42;99542.47;;;17.57;71.53
33496;BME280;19836;55.812;37.560;2022-09-30T15:22:10;99543.06;;;17.62;71.72
33496;BME280;19836;55.812;37.560;2022-09-30T15:24:38;99543.13;;;17.60;71.73
33496;BME280;19836;55.812;37.560;2022-09-30T15:27:15;99547.44;;;17.78;71.42
33496;BME280;19836;55.812;37.560;2022-09-30T15:29:56;99547.53;;;17.77;71.05
33496;BME280;19836;55.812;37.560;2022-09-30T15:32:31;99554.09;;;17.73;70.87
33496;BME280;19836;55.812;37.560;2022-09-30T15:35:14;99552.81;;;17.64;70.44
33496;BME280;19836;55.812;37.560;2022-09-30T15:37:41;99554.78;;;17.62;70.66
33496;BME280;19836;55.812;37.560;2022-09-30T15:40:13;99565.13;;;17.56;70.78
33496;BME280;19836;55.812;37.560;2022-09-30T15:43:00;99571.50;;;17.55;70.75
33496;BME280;19836;55.812;37.560;2022-09-30T15:45:33;99575.44;;;17.49;71.27
33496;BME280;19836;55.812;37.560;2022-09-30T15:50:43;99585.09;;;17.39;71.45
33496;BME280;19836;55.812;37.560;2022-09-30T15:53:18;99587.16;;;17.34;71.69
33496;BME280;19836;55.812;37.560;2022-09-30T15:55:46;99584.03;;;17.26;71.53
33496;BME280;19836;55.812;37.560;2022-09-30T16:01:22;99581.09;;;17.15;72.52
33496;BME280;19836;55.812;37.560;2022-09-30T16:03:58;99580.59;;;17.09;72.73
33496;BME280;19836;55.812;37.560;2022-09-30T16:17:00;99588.09;;;17.04;72.81
33496;BME280;19836;55.812;37.560;2022-09-30T16:19:29;99583.56;;;17.04;73.03
33496;BME280;19836;55.812;37.560;2022-09-30T16:21:55;99588.09;;;17.04;73.22
33496;BME280;19836;55.812;37.560;2022-09-30T16:26:52;99584.78;;;16.99;72.85
33496;BME280;19836;55.812;37.560;2022-09-30T16:29:18;99587.63;;;16.97;72.89
33496;BME280;19836;55.812;37.560;2022-09-30T16:31:45;99590.56;;;16.93;73.19
33496;BME280;19836;55.812;37.560;2022-09-30T16:34:18;99601.41;;;16.93;73.13
33496;BME280;19836;55.812;37.560;2022-09-30T16:36:46;99599.66;;;16.92;73.10
33496;BME280;19836;55.812;37.560;2022-09-30T16:39:14;99596.34;;;16.87;73.62
33496;BME280;19836;55.812;37.560;2022-09-30T16:41:40;99609.97;;;16.85;73.35
33496;BME280;19836;55.812;37.560;2022-09-30T16:44:08;99608.22;;;16.84;73.46
33496;BME280;19836;55.812;37.560;2022-09-30T16:46:34;99604.75;;;16.82;73.95
33496;BME280;19836;55.812;37.560;2022-09-30T16:49:14;99610.03;;;16.84;74.09
33496;BME280;19836;55.812;37.560;2022-09-30T16:51:41;99600.47;;;16.78;73.79
33496;BME280;19836;55.812;37.560;2022-09-30T16:54:08;99605.94;;;16.77;73.88
33496;BME280;19836;55.812;37.560;2022-09-30T16:56:34;99605.06;;;16.76;74.34
33496;BME280;19836;55.812;37.560;2022-09-30T16:59:00;99598.81;;;16.76;74.16
33496;BME280;19836;55.812;37.560;2022-09-30T17:01:27;99605.19;;;16.75;74.34
33496;BME280;19836;55.812;37.560;2022-09-30T17:04:03;99600.00;;;16.70;74.41
33496;BME280;19836;55.812;37.560;2022-09-30T17:06:55;99605.25;;;16.73;74.72
33496;BME280;19836;55.812;37.560;2022-09-30T17:09:27;99612.41;;;16.74;74.76
33496;BME280;19836;55.812;37.560;2022-09-30T17:11:53;99610.66;;;16.73;74.86
33496;BME280;19836;55.812;37.560;2022-09-30T17:14:19;99616.25;;;16.70;74.46
33496;BME280;19836;55.812;37.560;2022-09-30T17:16:47;99618.94;;;16.70;74.70
33496;BME280;19836;55.812;37.560;2022-09-30T17:19:13;99617.22;;;16.69;74.77
33496;BME280;19836;55.812;37.560;2022-09-30T17:21:39;99619.03;;;16.69;75.03
33496;BME280;19836;55.812;37.560;2022-09-30T17:24:26;99627.06;;;16.70;75.62
33496;BME280;19836;55.812;37.560;2022-09-30T17:26:52;99623.41;;;16.71;75.02
33496;BME280;19836;55.812;37.560;2022-09-30T17:29:18;99621.84;;;16.67;75.28
33496;BME280;19836;55.812;37.560;2022-09-30T17:31:43;99619.22;;;16.66;75.47
33496;BME280;19836;55.812;37.560;2022-09-30T17:34:09;99613.91;;;16.64;75.46
33496;BME280;19836;55.812;37.560;2022-09-30T17:36:35;99620.28;;;16.63;75.63
33496;BME280;19836;55.812;37.560;2022-09-30T17:39:01;99618.34;;;16.65;76.08
33496;BME280;19836;55.812;37.560;2022-09-30T17:41:28;99613.72;;;16.67;75.75
33496;BME280;19836;55.812;37.560;2022-09-30T17:44:12;99612.94;;;16.65;76.22
33496;BME280;19836;55.812;37.560;2022-09-30T17:46:41;99615.56;;;16.67;76.19
33496;BME280;19836;55.812;37.560;2022-09-30T17:49:07;99617.28;;;16.68;76.12
33496;BME280;19836;55.812;37.560;2022-09-30T17:51:34;99600.22;;;16.67;76.26
33496;BME280;19836;55.812;37.560;2022-09-30T17:54:04;99609.09;;;16.69;75.94
33496;BME280;19836;55.812;37.560;2022-09-30T17:56:30;99618.94;;;16.70;76.13
33496;BME280;19836;55.812;37.560;2022-09-30T17:58:56;99617.97;;;16.71;76.37
33496;BME280;19836;55.812;37.560;2022-09-30T18:01:22;99613.47;;;16.72;76.07
33496;BME280;19836;55.812;37.560;2022-09-30T18:03:49;99605.50;;;16.69;76.28
33496;BME280;19836;55.812;37.560;2022-09-30T18:06:19;99610.06;;;16.68;76.22
33496;BME280;19836;55.812;37.560;2022-09-30T18:08:48;99611.97;;;16.66;76.21
33496;BME280;19836;55.812;37.560;2022-09-30T18:11:19;99611.81;;;16.69;76.37